sensor_id;sensor_type;location;lat;lon;timestamp;temperature;humidity
20744;DHT22;56303;52.160;-0.428;2023-02-18T00:01:01;12.40;99.90
20744;DHT22;56303;52.160;-0.428;2023-02-18T00:03:28;12.40;99.90
20744;DHT22;56303;52.160;-0.428;2023-02-18T00:05:55;12.30;99.90
20744;DHT22;56303;52.160;-0.428;2023-02-18T00:08:22;12.40;99.90
20744;DHT22;56303;52.160;-0.428;2023-02-18T00:10:49;12.30;99.90
20744;DHT22;56303;52.160;-0.428;2023-02-18T00:13:16;12.30;99.90
20744;DHT22;56303;52.160;-0.428;2023-02-18T00:15:43;12.20;99.90
20744;DHT22;56303;52.160;-0.428;2023-02-18T00:18:10;12.20;99.90
20744;DHT22;56303;52.160;-0.428;2023-02-18T00:20:38;12.20;99.90
20744;DHT22;56303;52.160;-0.428;2023-02-18T00:23:05;12.40;99.90
20744;DHT22;56303;52.160;-0.428;2023-02-18T00:25:32;12.30;99.90
20744;DHT22;56303;52.160;-0.428;2023-02-18T00:27:58;12.30;99.90
20744;DHT22;56303;52.160;-0.428;2023-02-18T00:30:25;12.10;99.90
20744;DHT22;56303;52.160;-0.428;2023-02-18T00:32:54;12.20;99.90
20744;DHT22;56303;52.160;-0.428;2023-02-18T00:35:21;12.20;99.90
20744;DHT22;56303;52.160;-0.428;2023-02-18T00:37:50;12.30;99.90
20744;DHT22;56303;52.160;-0.428;2023-02-18T00:40:18;12.30;99.90
20744;DHT22;56303;52.160;-0.428;2023-02-18T00:42:45;12.30;99.90
20744;DHT22;56303;52.160;-0.428;2023-02-18T00:45:12;12.40;99.90
20744;DHT22;56303;52.160;-0.428;2023-02-18T00:47:39;12.30;99.90
20744;DHT22;56303;52.160;-0.428;2023-02-18T00:50:07;12.10;99.90
20744;DHT22;56303;52.160;-0.428;2023-02-18T00:52:34;12.20;99.90
20744;DHT22;56303;52.160;-0.428;2023-02-18T00:55:01;12.30;99.90
20744;DHT22;56303;52.160;-0.428;2023-02-18T00:57:28;12.20;99.90
20744;DHT22;56303;52.160;-0.428;2023-02-18T00:59:55;12.30;99.90
20744;DHT22;56303;52.160;-0.428;2023-02-18T01:02:22;12.10;99.90
20744;DHT22;56303;52.160;-0.428;2023-02-18T01:04:49;12.20;99.90
20744;DHT22;56303;52.160;-0.428;2023-02-18T01:07:16;12.30;99.90
20744;DHT22;56303;52.160;-0.428;2023-02-18T01:09:43;12.40;99.90
20744;DHT22;56303;52.160;-0.428;2023-02-18T01:12:10;12.30;99.90
20744;DHT22;56303;52.160;-0.428;2023-02-18T01:14:37;12.30;99.90
20744;DHT22;56303;52.160;-0.428;2023-02-18T01:17:03;12.30;99.90
20744;DHT22;56303;52.160;-0.428;2023-02-18T01:19:30;12.30;99.90
20744;DHT22;56303;52.160;-0.428;2023-02-18T01:21:57;12.40;99.90
20744;DHT22;56303;52.160;-0.428;2023-02-18T01:24:24;12.20;99.90
20744;DHT22;56303;52.160;-0.428;2023-02-18T01:26:51;12.30;99.90
20744;DHT22;56303;52.160;-0.428;2023-02-18T01:29:18;12.20;99.90
20744;DHT22;56303;52.160;-0.428;2023-02-18T01:31:44;12.10;99.90
20744;DHT22;56303;52.160;-0.428;2023-02-18T01:34:11;12.10;99.90
20744;DHT22;56303;52.160;-0.428;2023-02-18T01:36:38;12.20;99.90
20744;DHT22;56303;52.160;-0.428;2023-02-18T01:39:05;12.10;99.90
20744;DHT22;56303;52.160;-0.428;2023-02-18T01:41:32;12.00;99.90
20744;DHT22;56303;52.160;-0.428;2023-02-18T01:44:18;12.00;99.90
20744;DHT22;56303;52.160;-0.428;2023-02-18T01:46:46;12.00;99.90
20744;DHT22;56303;52.160;-0.428;2023-02-18T01:49:22;12.20;99.90
20744;DHT22;56303;52.160;-0.428;2023-02-18T01:51:53;12.20;99.90
20744;DHT22;56303;52.160;-0.428;2023-02-18T01:54:55;10.80;99.90
20744;DHT22;56303;52.160;-0.428;2023-02-18T01:57:31;12.00;99.90
20744;DHT22;56303;52.160;-0.428;2023-02-18T02:02:38;11.80;99.90
20744;DHT22;56303;52.160;-0.428;2023-02-18T02:05:07;11.80;99.90
20744;DHT22;56303;52.160;-0.428;2023-02-18T02:07:34;12.00;99.90
20744;DHT22;56303;52.160;-0.428;2023-02-18T02:10:01;11.80;99.90
20744;DHT22;56303;52.160;-0.428;2023-02-18T02:15:41;11.70;99.90
20744;DHT22;56303;52.160;-0.428;2023-02-18T02:18:33;11.60;99.90
20744;DHT22;56303;52.160;-0.428;2023-02-18T02:29:43;11.50;99.90
20744;DHT22;56303;52.160;-0.428;2023-02-18T02:35:23;11.60;99.90
20744;DHT22;56303;52.160;-0.428;2023-02-18T02:40:51;11.40;99.90
20744;DHT22;56303;52.160;-0.428;2023-02-18T02:43:36;11.50;99.90
20744;DHT22;56303;52.160;-0.428;2023-02-18T02:46:29;11.40;99.90
20744;DHT22;56303;52.160;-0.428;2023-02-18T02:54:23;11.20;99.90
20744;DHT22;56303;52.160;-0.428;2023-02-18T02:59:45;11.10;99.90
20744;DHT22;56303;52.160;-0.428;2023-02-18T03:05:23;11.00;99.90
20744;DHT22;56303;52.160;-0.428;2023-02-18T03:08:13;11.00;99.90
20744;DHT22;56303;52.160;-0.428;2023-02-18T03:13:30;11.10;99.90
20744;DHT22;56303;52.160;-0.428;2023-02-18T03:18:58;10.90;99.90
20744;DHT22;56303;52.160;-0.428;2023-02-18T03:21:53;10.90;99.90
20744;DHT22;56303;52.160;-0.428;2023-02-18T03:24:23;10.90;99.90
20744;DHT22;56303;52.160;-0.428;2023-02-18T03:26:57;10.80;99.90
20744;DHT22;56303;52.160;-0.428;2023-02-18T03:29:26;10.90;99.90
20744;DHT22;56303;52.160;-0.428;2023-02-18T03:31:56;10.80;99.90
20744;DHT22;56303;52.160;-0.428;2023-02-18T03:34:29;10.60;99.90
20744;DHT22;56303;52.160;-0.428;2023-02-18T03:36:58;10.80;99.90
20744;DHT22;56303;52.160;-0.428;2023-02-18T03:39:27;10.70;99.90
20744;DHT22;56303;52.160;-0.428;2023-02-18T03:41:55;10.60;99.90
20744;DHT22;56303;52.160;-0.428;2023-02-18T03:44:24;10.70;99.90
20744;DHT22;56303;52.160;-0.428;2023-02-18T03:46:51;10.80;99.90
20744;DHT22;56303;52.160;-0.428;2023-02-18T03:49:18;10.90;99.90
20744;DHT22;56303;52.160;-0.428;2023-02-18T03:51:45;10.80;99.90
20744;DHT22;56303;52.160;-0.428;2023-02-18T03:54:12;10.80;99.90
20744;DHT22;56303;52.160;-0.428;2023-02-18T03:56:40;10.80;99.90
20744;DHT22;56303;52.160;-0.428;2023-02-18T03:59:09;10.90;99.90
20744;DHT22;56303;52.160;-0.428;2023-02-18T04:01:37;10.90;99.90
20744;DHT22;56303;52.160;-0.428;2023-02-18T04:04:04;10.80;99.90
20744;DHT22;56303;52.160;-0.428;2023-02-18T04:06:31;10.80;99.90
20744;DHT22;56303;52.160;-0.428;2023-02-18T04:08:57;10.90;99.90
20744;DHT22;56303;52.160;-0.428;2023-02-18T04:11:24;10.80;99.90
20744;DHT22;56303;52.160;-0.428;2023-02-18T04:13:51;10.80;99.90
20744;DHT22;56303;52.160;-0.428;2023-02-18T04:16:18;10.80;99.90
20744;DHT22;56303;52.160;-0.428;2023-02-18T04:18:45;10.70;99.90
20744;DHT22;56303;52.160;-0.428;2023-02-18T04:21:12;10.70;99.90
20744;DHT22;56303;52.160;-0.428;2023-02-18T04:23:39;10.80;99.90
20744;DHT22;56303;52.160;-0.428;2023-02-18T04:26:06;10.70;99.90
20744;DHT22;56303;52.160;-0.428;2023-02-18T04:28:33;10.80;99.90
20744;DHT22;56303;52.160;-0.428;2023-02-18T04:31:01;10.70;99.90
20744;DHT22;56303;52.160;-0.428;2023-02-18T04:33:28;10.80;99.90
20744;DHT22;56303;52.160;-0.428;2023-02-18T04:35:55;10.90;99.90
20744;DHT22;56303;52.160;-0.428;2023-02-18T04:38:22;10.80;99.90
20744;DHT22;56303;52.160;-0.428;2023-02-18T04:40:49;10.70;99.90
20744;DHT22;56303;52.160;-0.428;2023-02-18T04:43:16;10.70;99.90
20744;DHT22;56303;52.160;-0.428;2023-02-18T04:45:43;10.70;99.90
20744;DHT22;56303;52.160;-0.428;2023-02-18T04:48:10;10.60;99.90
20744;DHT22;56303;52.160;-0.428;2023-02-18T04:50:37;10.70;99.90
20744;DHT22;56303;52.160;-0.428;2023-02-18T04:53:04;10.70;99.90
20744;DHT22;56303;52.160;-0.428;2023-02-18T04:55:30;9.90;99.90
20744;DHT22;56303;52.160;-0.428;2023-02-18T04:57:57;10.70;99.90
20744;DHT22;56303;52.160;-0.428;2023-02-18T05:00:24;10.70;99.90
20744;DHT22;56303;52.160;-0.428;2023-02-18T05:02:52;10.80;99.90
20744;DHT22;56303;52.160;-0.428;2023-02-18T05:05:20;10.70;99.90
20744;DHT22;56303;52.160;-0.428;2023-02-18T05:07:47;10.70;99.90
20744;DHT22;56303;52.160;-0.428;2023-02-18T05:10:16;10.80;99.90
20744;DHT22;56303;52.160;-0.428;2023-02-18T05:12:43;10.80;99.90
20744;DHT22;56303;52.160;-0.428;2023-02-18T05:15:10;10.80;99.90
20744;DHT22;56303;52.160;-0.428;2023-02-18T05:17:37;10.90;99.90
20744;DHT22;56303;52.160;-0.428;2023-02-18T05:20:07;10.80;99.90
20744;DHT22;56303;52.160;-0.428;2023-02-18T05:22:36;10.80;99.90
20744;DHT22;56303;52.160;-0.428;2023-02-18T05:25:04;10.90;99.90
20744;DHT22;56303;52.160;-0.428;2023-02-18T05:27:31;10.80;99.90
20744;DHT22;56303;52.160;-0.428;2023-02-18T05:29:58;10.90;99.90
20744;DHT22;56303;52.160;-0.428;2023-02-18T05:32:25;10.90;99.90
20744;DHT22;56303;52.160;-0.428;2023-02-18T05:34:52;10.80;99.90
20744;DHT22;56303;52.160;-0.428;2023-02-18T05:37:19;10.90;99.90
20744;DHT22;56303;52.160;-0.428;2023-02-18T05:39:46;11.00;99.90
20744;DHT22;56303;52.160;-0.428;2023-02-18T05:42:12;11.00;99.90
20744;DHT22;56303;52.160;-0.428;2023-02-18T05:44:39;11.00;99.90
20744;DHT22;56303;52.160;-0.428;2023-02-18T05:47:09;11.10;99.90
20744;DHT22;56303;52.160;-0.428;2023-02-18T05:49:38;11.10;99.90
20744;DHT22;56303;52.160;-0.428;2023-02-18T05:52:06;11.20;99.90
20744;DHT22;56303;52.160;-0.428;2023-02-18T05:54:34;11.20;99.90
20744;DHT22;56303;52.160;-0.428;2023-02-18T05:57:01;11.30;99.90
20744;DHT22;56303;52.160;-0.428;2023-02-18T05:59:28;11.30;99.90
20744;DHT22;56303;52.160;-0.428;2023-02-18T06:01:55;11.40;99.90
20744;DHT22;56303;52.160;-0.428;2023-02-18T06:04:22;11.40;99.90
20744;DHT22;56303;52.160;-0.428;2023-02-18T06:06:49;11.30;99.90
20744;DHT22;56303;52.160;-0.428;2023-02-18T06:09:16;11.40;99.90
20744;DHT22;56303;52.160;-0.428;2023-02-18T06:11:43;11.60;99.90
20744;DHT22;56303;52.160;-0.428;2023-02-18T06:14:10;11.60;99.90
20744;DHT22;56303;52.160;-0.428;2023-02-18T06:16:37;11.50;99.90
20744;DHT22;56303;52.160;-0.428;2023-02-18T06:19:04;11.50;99.90
20744;DHT22;56303;52.160;-0.428;2023-02-18T06:21:31;11.50;99.90
20744;DHT22;56303;52.160;-0.428;2023-02-18T06:23:57;11.60;99.90
20744;DHT22;56303;52.160;-0.428;2023-02-18T06:26:25;11.60;99.90
20744;DHT22;56303;52.160;-0.428;2023-02-18T06:28:52;11.60;99.90
20744;DHT22;56303;52.160;-0.428;2023-02-18T06:31:19;11.60;99.90
20744;DHT22;56303;52.160;-0.428;2023-02-18T06:33:46;11.50;99.90
20744;DHT22;56303;52.160;-0.428;2023-02-18T06:36:13;11.50;99.90
20744;DHT22;56303;52.160;-0.428;2023-02-18T06:38:42;11.40;99.90
20744;DHT22;56303;52.160;-0.428;2023-02-18T06:41:10;11.50;99.90
20744;DHT22;56303;52.160;-0.428;2023-02-18T06:43:37;11.60;99.90
20744;DHT22;56303;52.160;-0.428;2023-02-18T06:46:04;11.80;99.90
20744;DHT22;56303;52.160;-0.428;2023-02-18T06:48:33;11.70;99.90
20744;DHT22;56303;52.160;-0.428;2023-02-18T06:51:00;11.70;99.90
20744;DHT22;56303;52.160;-0.428;2023-02-18T06:53:26;11.70;99.90
20744;DHT22;56303;52.160;-0.428;2023-02-18T06:55:53;11.50;99.90
20744;DHT22;56303;52.160;-0.428;2023-02-18T06:58:20;11.70;99.90
20744;DHT22;56303;52.160;-0.428;2023-02-18T07:00:49;11.70;99.90
20744;DHT22;56303;52.160;-0.428;2023-02-18T07:03:16;11.70;99.90
20744;DHT22;56303;52.160;-0.428;2023-02-18T07:05:43;11.50;99.90
20744;DHT22;56303;52.160;-0.428;2023-02-18T07:08:11;11.60;99.90
20744;DHT22;56303;52.160;-0.428;2023-02-18T07:10:38;11.80;99.90
20744;DHT22;56303;52.160;-0.428;2023-02-18T07:13:05;11.70;99.90
20744;DHT22;56303;52.160;-0.428;2023-02-18T07:15:32;11.90;99.90
20744;DHT22;56303;52.160;-0.428;2023-02-18T07:17:59;11.70;99.90
20744;DHT22;56303;52.160;-0.428;2023-02-18T07:20:26;11.60;99.90
20744;DHT22;56303;52.160;-0.428;2023-02-18T07:22:53;11.50;99.90
20744;DHT22;56303;52.160;-0.428;2023-02-18T07:25:20;11.60;99.90
20744;DHT22;56303;52.160;-0.428;2023-02-18T07:27:49;11.60;99.90
20744;DHT22;56303;52.160;-0.428;2023-02-18T07:30:18;11.60;99.90
20744;DHT22;56303;52.160;-0.428;2023-02-18T07:32:45;11.60;99.90
20744;DHT22;56303;52.160;-0.428;2023-02-18T07:35:13;11.60;99.90
20744;DHT22;56303;52.160;-0.428;2023-02-18T07:37:45;11.60;99.90
20744;DHT22;56303;52.160;-0.428;2023-02-18T07:40:15;11.60;99.90
20744;DHT22;56303;52.160;-0.428;2023-02-18T07:42:42;11.60;99.90
20744;DHT22;56303;52.160;-0.428;2023-02-18T07:45:09;11.70;99.90
20744;DHT22;56303;52.160;-0.428;2023-02-18T07:47:37;11.80;99.90
20744;DHT22;56303;52.160;-0.428;2023-02-18T07:50:05;11.70;99.90
20744;DHT22;56303;52.160;-0.428;2023-02-18T07:52:32;11.70;99.90
20744;DHT22;56303;52.160;-0.428;2023-02-18T07:54:58;11.80;99.90
20744;DHT22;56303;52.160;-0.428;2023-02-18T07:57:25;11.90;99.90
20744;DHT22;56303;52.160;-0.428;2023-02-18T07:59:52;11.90;99.90
20744;DHT22;56303;52.160;-0.428;2023-02-18T08:02:21;12.00;99.90
20744;DHT22;56303;52.160;-0.428;2023-02-18T08:04:48;12.00;99.90
20744;DHT22;56303;52.160;-0.428;2023-02-18T08:07:17;11.90;99.90
20744;DHT22;56303;52.160;-0.428;2023-02-18T08:09:44;11.80;99.90
20744;DHT22;56303;52.160;-0.428;2023-02-18T08:12:11;11.70;99.90
20744;DHT22;56303;52.160;-0.428;2023-02-18T08:14:38;11.80;99.90
20744;DHT22;56303;52.160;-0.428;2023-02-18T08:17:05;11.80;99.90
20744;DHT22;56303;52.160;-0.428;2023-02-18T08:19:35;11.90;99.90
20744;DHT22;56303;52.160;-0.428;2023-02-18T08:22:02;12.10;99.90
20744;DHT22;56303;52.160;-0.428;2023-02-18T08:24:29;12.00;99.90
20744;DHT22;56303;52.160;-0.428;2023-02-18T08:26:56;12.00;99.90
20744;DHT22;56303;52.160;-0.428;2023-02-18T08:29:27;12.00;99.90
20744;DHT22;56303;52.160;-0.428;2023-02-18T08:31:54;12.10;99.90
20744;DHT22;56303;52.160;-0.428;2023-02-18T08:34:24;12.10;99.90
20744;DHT22;56303;52.160;-0.428;2023-02-18T08:36:50;12.20;99.90
20744;DHT22;56303;52.160;-0.428;2023-02-18T08:39:17;12.30;99.90
20744;DHT22;56303;52.160;-0.428;2023-02-18T08:41:44;12.20;99.90
20744;DHT22;56303;52.160;-0.428;2023-02-18T08:44:11;12.20;99.90
20744;DHT22;56303;52.160;-0.428;2023-02-18T08:46:38;12.10;99.90
20744;DHT22;56303;52.160;-0.428;2023-02-18T08:49:05;12.20;99.90
20744;DHT22;56303;52.160;-0.428;2023-02-18T08:51:33;12.20;99.90
20744;DHT22;56303;52.160;-0.428;2023-02-18T08:54:01;12.30;99.90
20744;DHT22;56303;52.160;-0.428;2023-02-18T08:56:28;12.30;99.90
20744;DHT22;56303;52.160;-0.428;2023-02-18T08:58:54;12.40;99.90
20744;DHT22;56303;52.160;-0.428;2023-02-18T09:01:21;12.40;99.90
20744;DHT22;56303;52.160;-0.428;2023-02-18T09:03:51;11.80;99.90
20744;DHT22;56303;52.160;-0.428;2023-02-18T09:06:30;12.40;99.90
20744;DHT22;56303;52.160;-0.428;2023-02-18T09:09:02;12.40;99.90
20744;DHT22;56303;52.160;-0.428;2023-02-18T09:11:29;12.50;99.90
20744;DHT22;56303;52.160;-0.428;2023-02-18T09:13:58;12.60;99.90
20744;DHT22;56303;52.160;-0.428;2023-02-18T09:16:25;12.60;99.90
20744;DHT22;56303;52.160;-0.428;2023-02-18T09:18:53;12.60;99.90
20744;DHT22;56303;52.160;-0.428;2023-02-18T09:21:21;12.70;99.90
20744;DHT22;56303;52.160;-0.428;2023-02-18T09:23:49;12.70;99.90
20744;DHT22;56303;52.160;-0.428;2023-02-18T09:26:18;12.70;99.90
20744;DHT22;56303;52.160;-0.428;2023-02-18T09:28:49;12.90;99.90
20744;DHT22;56303;52.160;-0.428;2023-02-18T09:31:18;12.70;99.90
20744;DHT22;56303;52.160;-0.428;2023-02-18T09:33:53;12.60;99.90
20744;DHT22;56303;52.160;-0.428;2023-02-18T09:36:21;12.70;99.90
20744;DHT22;56303;52.160;-0.428;2023-02-18T09:38:49;12.80;99.90
20744;DHT22;56303;52.160;-0.428;2023-02-18T09:41:42;13.00;99.90
20744;DHT22;56303;52.160;-0.428;2023-02-18T09:46:53;13.30;99.90
20744;DHT22;56303;52.160;-0.428;2023-02-18T09:49:26;13.20;99.90
20744;DHT22;56303;52.160;-0.428;2023-02-18T09:51:55;13.30;99.90
20744;DHT22;56303;52.160;-0.428;2023-02-18T09:54:22;13.30;99.90
20744;DHT22;56303;52.160;-0.428;2023-02-18T09:56:51;13.40;99.90
20744;DHT22;56303;52.160;-0.428;2023-02-18T09:59:20;13.20;99.90
20744;DHT22;56303;52.160;-0.428;2023-02-18T10:01:50;13.20;99.90
20744;DHT22;56303;52.160;-0.428;2023-02-18T10:04:22;13.30;99.90
20744;DHT22;56303;52.160;-0.428;2023-02-18T10:06:52;13.50;99.90
20744;DHT22;56303;52.160;-0.428;2023-02-18T10:09:27;13.30;99.90
20744;DHT22;56303;52.160;-0.428;2023-02-18T10:11:57;12.90;99.90
20744;DHT22;56303;52.160;-0.428;2023-02-18T10:14:26;12.80;99.90
20744;DHT22;56303;52.160;-0.428;2023-02-18T10:16:53;12.80;99.90
20744;DHT22;56303;52.160;-0.428;2023-02-18T10:19:40;12.90;99.90
20744;DHT22;56303;52.160;-0.428;2023-02-18T10:22:10;12.90;99.90
20744;DHT22;56303;52.160;-0.428;2023-02-18T10:24:45;13.00;99.90
20744;DHT22;56303;52.160;-0.428;2023-02-18T10:27:24;12.80;99.90
20744;DHT22;56303;52.160;-0.428;2023-02-18T10:29:51;12.80;99.90
20744;DHT22;56303;52.160;-0.428;2023-02-18T10:32:29;13.10;99.90
20744;DHT22;56303;52.160;-0.428;2023-02-18T10:35:05;13.00;99.90
20744;DHT22;56303;52.160;-0.428;2023-02-18T10:38:00;13.00;99.90
20744;DHT22;56303;52.160;-0.428;2023-02-18T10:46:41;13.00;99.90
20744;DHT22;56303;52.160;-0.428;2023-02-18T10:51:54;12.80;99.90
20744;DHT22;56303;52.160;-0.428;2023-02-18T10:54:26;13.20;99.90
20744;DHT22;56303;52.160;-0.428;2023-02-18T10:56:58;13.20;99.90
20744;DHT22;56303;52.160;-0.428;2023-02-18T10:59:35;13.20;99.90
20744;DHT22;56303;52.160;-0.428;2023-02-18T11:02:12;13.20;99.90
20744;DHT22;56303;52.160;-0.428;2023-02-18T11:04:44;12.80;99.90
20744;DHT22;56303;52.160;-0.428;2023-02-18T11:07:15;12.70;99.90
20744;DHT22;56303;52.160;-0.428;2023-02-18T11:09:49;12.40;99.90
20744;DHT22;56303;52.160;-0.428;2023-02-18T11:12:23;12.40;99.90
20744;DHT22;56303;52.160;-0.428;2023-02-18T11:17:35;12.50;99.90
20744;DHT22;56303;52.160;-0.428;2023-02-18T11:20:28;12.60;99.90
20744;DHT22;56303;52.160;-0.428;2023-02-18T11:23:19;14.10;99.90
20744;DHT22;56303;52.160;-0.428;2023-02-18T11:26:00;12.50;99.90
20744;DHT22;56303;52.160;-0.428;2023-02-18T11:31:08;12.50;99.90
20744;DHT22;56303;52.160;-0.428;2023-02-18T11:33:40;12.70;99.90
20744;DHT22;56303;52.160;-0.428;2023-02-18T11:36:30;12.70;99.90
20744;DHT22;56303;52.160;-0.428;2023-02-18T11:39:03;12.70;99.90
20744;DHT22;56303;52.160;-0.428;2023-02-18T11:41:41;12.90;99.90
20744;DHT22;56303;52.160;-0.428;2023-02-18T11:44:28;12.90;99.90
20744;DHT22;56303;52.160;-0.428;2023-02-18T11:49:31;13.40;99.90
20744;DHT22;56303;52.160;-0.428;2023-02-18T11:52:29;13.60;99.90
20744;DHT22;56303;52.160;-0.428;2023-02-18T11:55:20;13.80;99.90
20744;DHT22;56303;52.160;-0.428;2023-02-18T11:58:08;13.90;99.90
20744;DHT22;56303;52.160;-0.428;2023-02-18T12:00:42;14.00;99.90
20744;DHT22;56303;52.160;-0.428;2023-02-18T12:03:41;14.10;99.90
20744;DHT22;56303;52.160;-0.428;2023-02-18T12:09:31;14.10;99.90
20744;DHT22;56303;52.160;-0.428;2023-02-18T12:12:07;14.10;99.90
20744;DHT22;56303;52.160;-0.428;2023-02-18T12:14:37;14.30;99.90
20744;DHT22;56303;52.160;-0.428;2023-02-18T12:20:39;14.20;99.90
20744;DHT22;56303;52.160;-0.428;2023-02-18T12:29:18;14.30;99.90
20744;DHT22;56303;52.160;-0.428;2023-02-18T13:06:18;14.90;99.90
20744;DHT22;56303;52.160;-0.428;2023-02-18T13:12:14;14.70;99.90
20744;DHT22;56303;52.160;-0.428;2023-02-18T13:17:25;15.30;99.90
20744;DHT22;56303;52.160;-0.428;2023-02-18T13:19:59;15.10;99.90
20744;DHT22;56303;52.160;-0.428;2023-02-18T13:22:29;15.30;99.90
20744;DHT22;56303;52.160;-0.428;2023-02-18T13:24:57;15.40;99.90
20744;DHT22;56303;52.160;-0.428;2023-02-18T13:30:33;15.90;99.90
20744;DHT22;56303;52.160;-0.428;2023-02-18T13:36:05;15.10;99.90
20744;DHT22;56303;52.160;-0.428;2023-02-18T13:39:08;15.10;99.90
20744;DHT22;56303;52.160;-0.428;2023-02-18T13:41:41;14.90;99.90
20744;DHT22;56303;52.160;-0.428;2023-02-18T13:46:57;14.70;99.90
20744;DHT22;56303;52.160;-0.428;2023-02-18T13:49:32;15.10;99.90
20744;DHT22;56303;52.160;-0.428;2023-02-18T13:52:01;14.90;99.90
20744;DHT22;56303;52.160;-0.428;2023-02-18T13:54:31;14.90;99.90
20744;DHT22;56303;52.160;-0.428;2023-02-18T13:57:16;14.90;99.90
20744;DHT22;56303;52.160;-0.428;2023-02-18T13:59:50;15.10;99.90
20744;DHT22;56303;52.160;-0.428;2023-02-18T14:09:57;15.10;99.90
20744;DHT22;56303;52.160;-0.428;2023-02-18T14:14:52;14.90;99.90
20744;DHT22;56303;52.160;-0.428;2023-02-18T14:19:53;15.30;99.90
20744;DHT22;56303;52.160;-0.428;2023-02-18T14:27:32;15.40;99.90
20744;DHT22;56303;52.160;-0.428;2023-02-18T14:30:19;15.20;99.90
20744;DHT22;56303;52.160;-0.428;2023-02-18T14:32:52;15.00;99.90
20744;DHT22;56303;52.160;-0.428;2023-02-18T14:38:32;15.20;99.90
20744;DHT22;56303;52.160;-0.428;2023-02-18T14:51:33;14.90;99.90
20744;DHT22;56303;52.160;-0.428;2023-02-18T14:54:05;15.00;99.90
20744;DHT22;56303;52.160;-0.428;2023-02-18T14:56:37;14.80;99.90
20744;DHT22;56303;52.160;-0.428;2023-02-18T14:59:05;15.10;99.90
20744;DHT22;56303;52.160;-0.428;2023-02-18T15:01:34;15.00;99.90
20744;DHT22;56303;52.160;-0.428;2023-02-18T15:04:02;15.00;99.90
20744;DHT22;56303;52.160;-0.428;2023-02-18T15:09:00;15.20;99.90
20744;DHT22;56303;52.160;-0.428;2023-02-18T15:12:17;15.10;99.90
20744;DHT22;56303;52.160;-0.428;2023-02-18T15:14:31;15.20;99.90
20744;DHT22;56303;52.160;-0.428;2023-02-18T15:17:00;15.20;99.90
20744;DHT22;56303;52.160;-0.428;2023-02-18T15:19:33;15.20;99.90
20744;DHT22;56303;52.160;-0.428;2023-02-18T15:22:02;15.20;99.90
20744;DHT22;56303;52.160;-0.428;2023-02-18T15:24:34;15.10;99.90
20744;DHT22;56303;52.160;-0.428;2023-02-18T15:27:15;15.10;99.90
20744;DHT22;56303;52.160;-0.428;2023-02-18T15:29:42;15.10;99.90
20744;DHT22;56303;52.160;-0.428;2023-02-18T15:32:21;15.00;99.90
20744;DHT22;56303;52.160;-0.428;2023-02-18T15:34:57;15.00;99.90
20744;DHT22;56303;52.160;-0.428;2023-02-18T15:37:28;15.00;99.90
20744;DHT22;56303;52.160;-0.428;2023-02-18T15:39:56;14.70;99.90
20744;DHT22;56303;52.160;-0.428;2023-02-18T15:42:32;14.90;99.90
20744;DHT22;56303;52.160;-0.428;2023-02-18T15:47:49;14.50;99.90
20744;DHT22;56303;52.160;-0.428;2023-02-18T15:50:29;14.40;99.90
20744;DHT22;56303;52.160;-0.428;2023-02-18T15:53:04;14.30;99.90
20744;DHT22;56303;52.160;-0.428;2023-02-18T15:55:35;14.50;99.90
20744;DHT22;56303;52.160;-0.428;2023-02-18T15:58:17;14.10;99.90
20744;DHT22;56303;52.160;-0.428;2023-02-18T16:00:58;14.10;99.90
20744;DHT22;56303;52.160;-0.428;2023-02-18T16:11:41;13.90;99.90
20744;DHT22;56303;52.160;-0.428;2023-02-18T16:14:45;14.00;99.90
20744;DHT22;56303;52.160;-0.428;2023-02-18T16:17:15;13.90;99.90
20744;DHT22;56303;52.160;-0.428;2023-02-18T16:27:37;13.70;99.90
20744;DHT22;56303;52.160;-0.428;2023-02-18T16:30:18;13.60;99.90
20744;DHT22;56303;52.160;-0.428;2023-02-18T16:32:45;13.60;99.90
20744;DHT22;56303;52.160;-0.428;2023-02-18T16:35:13;13.60;99.90
20744;DHT22;56303;52.160;-0.428;2023-02-18T16:37:41;13.70;99.90
20744;DHT22;56303;52.160;-0.428;2023-02-18T16:40:22;13.50;99.90
20744;DHT22;56303;52.160;-0.428;2023-02-18T16:42:50;14.10;99.90
20744;DHT22;56303;52.160;-0.428;2023-02-18T16:45:17;13.50;99.90
20744;DHT22;56303;52.160;-0.428;2023-02-18T16:47:46;13.50;99.90
20744;DHT22;56303;52.160;-0.428;2023-02-18T16:50:17;13.40;99.90
20744;DHT22;56303;52.160;-0.428;2023-02-18T16:52:48;13.50;99.90
20744;DHT22;56303;52.160;-0.428;2023-02-18T16:55:20;13.30;99.90
20744;DHT22;56303;52.160;-0.428;2023-02-18T16:57:48;13.40;99.90
20744;DHT22;56303;52.160;-0.428;2023-02-18T17:00:16;14.00;99.90
20744;DHT22;56303;52.160;-0.428;2023-02-18T17:02:48;13.30;99.90
20744;DHT22;56303;52.160;-0.428;2023-02-18T17:05:21;13.30;99.90
20744;DHT22;56303;52.160;-0.428;2023-02-18T17:07:53;13.30;99.90
20744;DHT22;56303;52.160;-0.428;2023-02-18T17:10:20;13.40;99.90
20744;DHT22;56303;52.160;-0.428;2023-02-18T17:12:47;13.30;99.90
20744;DHT22;56303;52.160;-0.428;2023-02-18T17:15:20;13.20;99.90
20744;DHT22;56303;52.160;-0.428;2023-02-18T17:17:50;13.30;99.90
20744;DHT22;56303;52.160;-0.428;2023-02-18T17:20:17;13.20;99.90
20744;DHT22;56303;52.160;-0.428;2023-02-18T17:22:44;13.30;99.90
20744;DHT22;56303;52.160;-0.428;2023-02-18T17:25:16;13.40;99.90
20744;DHT22;56303;52.160;-0.428;2023-02-18T17:27:44;13.60;99.90
20744;DHT22;56303;52.160;-0.428;2023-02-18T17:30:13;13.70;99.90
20744;DHT22;56303;52.160;-0.428;2023-02-18T17:32:42;13.70;99.90
20744;DHT22;56303;52.160;-0.428;2023-02-18T17:35:18;13.70;99.90
20744;DHT22;56303;52.160;-0.428;2023-02-18T17:37:47;13.70;99.90
20744;DHT22;56303;52.160;-0.428;2023-02-18T17:40:32;13.70;99.90
20744;DHT22;56303;52.160;-0.428;2023-02-18T17:42:59;13.50;99.90
20744;DHT22;56303;52.160;-0.428;2023-02-18T17:45:34;13.70;99.90
20744;DHT22;56303;52.160;-0.428;2023-02-18T17:48:02;13.70;99.90
20744;DHT22;56303;52.160;-0.428;2023-02-18T17:50:30;13.70;99.90
20744;DHT22;56303;52.160;-0.428;2023-02-18T17:52:57;13.70;99.90
20744;DHT22;56303;52.160;-0.428;2023-02-18T17:55:30;13.70;99.90
20744;DHT22;56303;52.160;-0.428;2023-02-18T17:57:57;13.60;99.90
20744;DHT22;56303;52.160;-0.428;2023-02-18T18:00:28;13.50;99.90
20744;DHT22;56303;52.160;-0.428;2023-02-18T18:02:55;13.60;99.90
20744;DHT22;56303;52.160;-0.428;2023-02-18T18:05:25;13.40;99.90
20744;DHT22;56303;52.160;-0.428;2023-02-18T18:07:53;13.30;99.90
20744;DHT22;56303;52.160;-0.428;2023-02-18T18:10:23;13.50;99.90
20744;DHT22;56303;52.160;-0.428;2023-02-18T18:12:54;13.40;99.90
20744;DHT22;56303;52.160;-0.428;2023-02-18T18:15:26;13.30;99.90
20744;DHT22;56303;52.160;-0.428;2023-02-18T18:17:54;13.10;99.90
20744;DHT22;56303;52.160;-0.428;2023-02-18T18:20:25;13.20;99.90
20744;DHT22;56303;52.160;-0.428;2023-02-18T18:22:55;13.20;99.90
20744;DHT22;56303;52.160;-0.428;2023-02-18T18:27:56;13.20;99.90
20744;DHT22;56303;52.160;-0.428;2023-02-18T18:30:29;13.20;99.90